createdAt,value
2018-04-15T00:00:06.188Z,82.47
2018-04-15T00:02:35.308Z,82.87
2018-04-15T00:05:03.691Z,81.57
2018-04-15T00:07:32.075Z,85.77
2018-04-15T00:10:00.554Z,77.13
2018-04-15T00:12:28.903Z,81.10
2018-04-15T00:14:57.263Z,78.07
2018-04-15T00:17:26.387Z,80.90
2018-04-15T00:19:54.882Z,84.13
2018-04-15T00:22:23.268Z,82.57
2018-04-15T00:24:51.631Z,85.63
2018-04-15T00:27:20.114Z,81.17
2018-04-15T00:29:48.494Z,79.47
2018-04-15T00:32:16.975Z,89.80
2018-04-15T00:34:45.348Z,82.50
2018-04-15T00:37:14.323Z,84.50
2018-04-15T00:39:43.446Z,84.30
2018-04-15T00:42:12.094Z,83.50
2018-04-15T00:44:40.430Z,79.43
2018-04-15T00:47:08.764Z,84.93
2018-04-15T00:49:38.023Z,77.13
2018-04-15T00:52:06.437Z,77.40
2018-04-15T00:54:35.021Z,88.33
2018-04-15T00:57:03.371Z,87.43
2018-04-15T00:59:31.767Z,82.97
2018-04-15T01:02:00.106Z,79.00
2018-04-15T01:04:28.459Z,83.80
2018-04-15T01:06:56.858Z,78.93
2018-04-15T01:09:25.200Z,86.60
2018-04-15T01:11:54.544Z,79.90
2018-04-15T01:14:23.023Z,77.27
2018-04-15T01:16:51.390Z,77.73
2018-04-15T01:19:19.759Z,79.53
2018-04-15T01:21:48.087Z,78.77
2018-04-15T01:24:16.470Z,80.67
2018-04-15T01:26:44.827Z,78.93
2018-04-15T01:29:13.196Z,82.30
2018-04-15T01:31:41.539Z,84.83
2018-04-15T01:34:10.796Z,84.67
2018-04-15T01:36:39.139Z,85.10
2018-04-15T01:39:07.560Z,82.33
2018-04-15T01:41:35.939Z,84.10
2018-04-15T01:44:04.280Z,83.50
2018-04-15T01:46:32.637Z,82.60
2018-04-15T01:49:01.030Z,86.70
2018-04-15T01:51:29.419Z,84.23
2018-04-15T01:53:57.786Z,82.83
2018-04-15T01:56:26.150Z,88.33
2018-04-15T01:58:55.287Z,85.17
2018-04-15T02:01:23.651Z,90.70
2018-04-15T02:03:52.031Z,84.13
2018-04-15T02:06:20.427Z,81.60
2018-04-15T02:08:48.789Z,88.20
2018-04-15T02:11:17.167Z,92.13
2018-04-15T02:13:45.515Z,86.07
2018-04-15T02:16:14.642Z,92.27
2018-04-15T02:18:43.039Z,90.50
2018-04-15T02:21:11.397Z,82.43
2018-04-15T02:23:39.763Z,83.67
2018-04-15T02:26:08.879Z,85.00
2018-04-15T02:28:37.226Z,89.40
2018-04-15T02:31:05.611Z,83.13
2018-04-15T02:33:34.050Z,80.57
2018-04-15T02:36:02.417Z,84.20
2018-04-15T02:38:30.796Z,81.83
2018-04-15T02:40:59.203Z,77.60
2018-04-15T02:43:27.656Z,79.53
2018-04-15T02:45:56.073Z,86.37
2018-04-15T02:48:24.417Z,80.43
2018-04-15T02:50:52.795Z,84.60
2018-04-15T02:53:21.188Z,79.87
2018-04-15T02:55:49.547Z,80.60
2018-04-15T02:58:18.137Z,85.17
2018-04-15T03:00:46.529Z,78.43
2018-04-15T03:03:14.887Z,87.67
2018-04-15T03:05:43.274Z,84.73
2018-04-15T03:08:11.625Z,87.93
2018-04-15T03:10:39.989Z,83.83
2018-04-15T03:13:09.118Z,86.60
2018-04-15T03:15:37.499Z,86.43
2018-04-15T03:18:05.978Z,86.80
2018-04-15T03:20:34.337Z,83.43
2018-04-15T03:23:02.708Z,86.10
2018-04-15T03:25:31.843Z,85.93
2018-04-15T03:28:00.280Z,87.83
2018-04-15T03:30:29.413Z,91.20
2018-04-15T03:32:57.769Z,84.60
2018-04-15T03:35:26.882Z,88.73
2018-04-15T03:37:55.263Z,86.17
2018-04-15T03:40:23.630Z,81.80
2018-04-15T03:42:52.036Z,80.17
2018-04-15T03:45:20.416Z,85.13
2018-04-15T03:47:48.796Z,88.10
2018-04-15T03:50:17.172Z,82.80
2018-04-15T03:52:45.521Z,85.80
2018-04-15T03:55:14.663Z,88.97
2018-04-15T03:57:43.011Z,92.53
2018-04-15T04:00:11.371Z,96.80
2018-04-15T04:02:40.623Z,87.57
2018-04-15T04:05:08.970Z,89.67
2018-04-15T04:07:37.318Z,90.33
2018-04-15T04:10:06.433Z,88.63
2018-04-15T04:12:34.806Z,95.50
2018-04-15T04:15:03.931Z,93.63
2018-04-15T04:17:44.226Z,92.40
2018-04-15T04:20:24.428Z,86.23
2018-04-15T04:23:04.550Z,88.07
2018-04-15T04:25:45.394Z,81.40
2018-04-15T04:28:13.761Z,90.90
2018-04-15T04:30:42.103Z,81.17
2018-04-15T04:33:10.478Z,90.93
2018-04-15T04:35:39.616Z,87.90
2018-04-15T04:38:08.238Z,83.37
2018-04-15T04:40:36.573Z,79.63
2018-04-15T04:43:04.898Z,90.13
2018-04-15T04:45:33.269Z,87.07
2018-04-15T04:48:01.741Z,85.43
2018-04-15T04:50:30.131Z,90.97
2018-04-15T04:52:58.844Z,82.90
2018-04-15T04:55:27.215Z,84.60
2018-04-15T04:57:55.582Z,86.87
2018-04-15T05:00:24.004Z,90.67
2018-04-15T05:02:52.366Z,81.23
2018-04-15T05:05:20.749Z,81.20
2018-04-15T05:07:49.972Z,82.27
2018-04-15T05:10:18.319Z,84.17
2018-04-15T05:12:46.691Z,78.67
2018-04-15T05:15:15.108Z,87.17
2018-04-15T05:17:43.493Z,76.90
2018-04-15T05:20:11.885Z,81.73
2018-04-15T05:22:40.264Z,80.77
2018-04-15T05:25:08.631Z,85.63
2018-04-15T05:27:36.998Z,82.30
2018-04-15T05:30:05.350Z,87.33
2018-04-15T05:32:33.724Z,83.97
2018-04-15T05:35:02.860Z,84.40
2018-04-15T05:37:31.276Z,82.73
2018-04-15T05:39:59.738Z,82.50
2018-04-15T05:42:28.099Z,91.33
2018-04-15T05:44:56.607Z,93.67
2018-04-15T05:47:25.134Z,99.37
2018-04-15T05:49:54.297Z,97.50
2018-04-15T05:52:22.749Z,78.77
2018-04-15T05:54:51.150Z,85.37
2018-04-15T05:57:19.556Z,79.67
2018-04-15T05:59:48.718Z,80.83
2018-04-15T06:02:17.098Z,85.57
2018-04-15T06:04:45.491Z,87.50
2018-04-15T06:07:13.985Z,88.07
2018-04-15T06:09:42.441Z,87.27
2018-04-15T06:12:10.910Z,86.10
2018-04-15T06:14:39.277Z,79.00
2018-04-15T06:17:07.652Z,85.20
2018-04-15T06:19:36.033Z,79.70
2018-04-15T06:22:04.419Z,87.60
2018-04-15T06:24:32.854Z,82.20
2018-04-15T06:27:01.164Z,80.33
2018-04-15T06:29:29.526Z,83.23
2018-04-15T06:31:58.762Z,80.70
2018-04-15T06:34:27.135Z,78.67
2018-04-15T06:36:55.505Z,75.00
2018-04-15T06:39:23.864Z,76.90
2018-04-15T06:41:52.487Z,82.30
2018-04-15T06:44:20.854Z,82.07
2018-04-15T06:46:49.245Z,83.37
2018-04-15T06:49:17.789Z,83.30
2018-04-15T06:51:46.095Z,76.13
2018-04-15T06:54:14.690Z,77.83
2018-04-15T06:56:43.042Z,79.23
2018-04-15T06:59:11.378Z,80.23
2018-04-15T07:01:40.761Z,81.37
2018-04-15T07:04:09.120Z,71.80
2018-04-15T07:06:37.477Z,74.97
2018-04-15T07:09:06.526Z,78.60
2018-04-15T07:11:35.033Z,80.70
2018-04-15T07:14:04.842Z,76.27
2018-04-15T07:16:34.018Z,77.70
2018-04-15T07:19:02.385Z,75.13
2018-04-15T07:21:30.761Z,74.60
2018-04-15T07:23:59.149Z,75.83
2018-04-15T07:26:27.510Z,73.93
2018-04-15T07:28:55.891Z,75.87
2018-04-15T07:31:24.294Z,78.43
2018-04-15T07:33:52.747Z,74.00
2018-04-15T07:36:21.164Z,82.23
2018-04-15T07:38:49.487Z,83.30
2018-04-15T07:41:17.881Z,86.30
2018-04-15T07:43:46.268Z,79.90
2018-04-15T07:46:14.676Z,80.60
2018-04-15T07:48:43.127Z,79.43
2018-04-15T07:51:11.758Z,80.13
2018-04-15T07:53:40.165Z,75.30
2018-04-15T07:56:08.544Z,79.73
2018-04-15T07:58:37.675Z,72.10
2018-04-15T08:01:06.058Z,73.40
2018-04-15T08:03:34.514Z,76.60
2018-04-15T08:06:02.907Z,78.40
2018-04-15T08:08:31.270Z,78.53
2018-04-15T08:10:59.755Z,77.97
2018-04-15T08:13:28.205Z,79.37
2018-04-15T08:15:56.526Z,78.03
2018-04-15T08:18:24.918Z,77.40
2018-04-15T08:20:53.283Z,76.57
2018-04-15T08:23:21.690Z,78.13
2018-04-15T08:25:50.234Z,73.77
2018-04-15T08:28:18.727Z,74.33
2018-04-15T08:30:47.147Z,78.00
2018-04-15T08:33:15.554Z,72.83
2018-04-15T08:35:44.715Z,75.10
2018-04-15T08:38:13.089Z,76.60
2018-04-15T08:40:41.444Z,73.30
2018-04-15T08:43:09.824Z,75.63
2018-04-15T08:45:38.776Z,74.43
2018-04-15T08:48:07.122Z,73.47
2018-04-15T08:50:35.571Z,76.87
2018-04-15T08:53:04.474Z,72.67
2018-04-15T08:55:32.893Z,68.50
2018-04-15T08:58:01.369Z,66.67
2018-04-15T09:00:31.210Z,66.03
2018-04-15T09:02:59.575Z,61.20
2018-04-15T09:05:29.491Z,73.30
2018-04-15T09:07:57.885Z,66.97
2018-04-15T09:10:26.297Z,65.13
2018-04-15T09:12:54.682Z,69.83
2018-04-15T09:15:23.062Z,64.53
2018-04-15T09:17:51.478Z,74.87
2018-04-15T09:20:19.856Z,71.33
2018-04-15T09:22:48.239Z,73.33
2018-04-15T09:25:16.651Z,66.90
2018-04-15T09:27:45.309Z,69.03
2018-04-15T09:30:13.681Z,75.83
2018-04-15T09:32:42.145Z,83.83
2018-04-15T09:35:10.614Z,71.07
2018-04-15T09:37:39.055Z,67.87
2018-04-15T09:40:08.272Z,71.13
2018-04-15T09:42:36.631Z,67.00
2018-04-15T09:45:05.799Z,66.10
2018-04-15T09:47:34.187Z,62.20
2018-04-15T09:50:02.550Z,57.27
2018-04-15T09:52:30.974Z,53.93
2018-04-15T09:55:00.173Z,53.23
2018-04-15T09:57:29.178Z,56.10
2018-04-15T09:59:57.605Z,48.80
2018-04-15T10:02:25.979Z,45.10
2018-04-15T10:04:54.432Z,47.87
2018-04-15T10:07:22.889Z,45.97
2018-04-15T10:09:51.525Z,54.90
2018-04-15T10:12:19.879Z,51.33
2018-04-15T10:14:48.248Z,44.67
2018-04-15T10:17:16.619Z,39.00
2018-04-15T10:19:45.011Z,43.87
2018-04-15T10:22:14.125Z,46.53
2018-04-15T10:24:42.491Z,45.20
2018-04-15T10:27:11.313Z,37.10
2018-04-15T10:29:39.663Z,38.63
2018-04-15T10:32:08.019Z,41.97
2018-04-15T10:34:37.004Z,41.30
2018-04-15T10:37:05.394Z,40.93
2018-04-15T10:39:33.761Z,40.80
2018-04-15T10:42:02.145Z,38.93
2018-04-15T10:44:30.523Z,38.70
2018-04-15T10:46:59.148Z,42.17
2018-04-15T10:49:27.686Z,41.83
2018-04-15T10:51:57.121Z,42.77
2018-04-15T10:54:25.466Z,42.67
2018-04-15T10:56:54.721Z,42.90
2018-04-15T10:59:23.144Z,39.23
2018-04-15T11:01:53.053Z,42.33
2018-04-15T11:04:21.549Z,39.33
2018-04-15T11:06:50.682Z,41.33
2018-04-15T11:09:19.101Z,39.77
2018-04-15T11:11:47.492Z,41.67
2018-04-15T11:14:16.818Z,37.03
2018-04-15T11:16:45.449Z,37.87
2018-04-15T11:19:13.825Z,40.13
2018-04-15T11:21:42.696Z,43.97
2018-04-15T11:24:11.102Z,37.33
2018-04-15T11:26:40.731Z,40.83
2018-04-15T11:29:09.087Z,43.80
2018-04-15T11:31:37.485Z,43.67
2018-04-15T11:34:06.344Z,46.13
2018-04-15T11:36:34.809Z,37.17
2018-04-15T11:39:03.209Z,39.23
2018-04-15T11:41:31.889Z,46.63
2018-04-15T11:44:00.269Z,47.77
2018-04-15T11:46:28.846Z,53.07
2018-04-15T11:48:57.259Z,41.97
2018-04-15T11:51:25.674Z,47.07
2018-04-15T11:53:54.558Z,40.63
2018-04-15T11:56:22.924Z,42.40
2018-04-15T11:58:52.107Z,44.00
2018-04-15T12:01:20.761Z,39.65
2018-04-15T12:03:49.206Z,40.08
2018-04-15T12:06:18.346Z,38.78
2018-04-15T12:08:46.720Z,37.53
2018-04-15T12:11:15.725Z,40.17
2018-04-15T12:13:44.288Z,41.03
2018-04-15T12:16:13.497Z,41.17
2018-04-15T12:18:41.979Z,40.00
2018-04-15T12:21:10.466Z,41.10
2018-04-15T12:23:38.847Z,40.00
2018-04-15T12:26:07.292Z,35.03
2018-04-15T12:28:35.709Z,35.17
2018-04-15T12:31:04.224Z,35.00
2018-04-15T12:33:32.588Z,35.87
2018-04-15T12:36:00.946Z,31.10
2018-04-15T12:38:29.340Z,28.87
2018-04-15T12:40:57.781Z,27.77
2018-04-15T12:43:26.202Z,27.60
2018-04-15T12:45:54.599Z,28.02
2018-04-15T12:48:23.086Z,28.75
2018-04-15T12:50:51.539Z,30.27
2018-04-15T12:53:20.080Z,25.33
2018-04-15T12:55:48.424Z,20.67
2018-04-15T12:58:16.800Z,19.62
2018-04-15T13:00:45.251Z,20.92
2018-04-15T13:03:13.643Z,22.52
2018-04-15T13:05:42.089Z,24.17
2018-04-15T13:08:10.585Z,23.92
2018-04-15T13:10:38.951Z,25.42
2018-04-15T13:13:07.307Z,24.63
2018-04-15T13:15:36.450Z,23.65
2018-04-15T13:18:04.935Z,22.95
2018-04-15T13:20:33.399Z,21.92
2018-04-15T13:23:01.769Z,21.73
2018-04-15T13:25:30.214Z,22.17
2018-04-15T13:27:58.566Z,24.77
2018-04-15T13:30:26.925Z,23.17
2018-04-15T13:32:55.318Z,22.23
2018-04-15T13:35:23.675Z,20.52
2018-04-15T13:37:52.197Z,20.52
2018-04-15T13:40:20.599Z,21.15
2018-04-15T13:42:49.027Z,21.73
2018-04-15T13:45:17.408Z,22.30
2018-04-15T13:47:45.766Z,23.73
2018-04-15T13:50:14.149Z,17.20
2018-04-15T13:52:42.590Z,16.98
2018-04-15T13:55:11.814Z,16.70
2018-04-15T13:57:40.952Z,16.87
2018-04-15T14:00:09.527Z,15.98
2018-04-15T14:02:37.911Z,14.65
2018-04-15T14:05:06.256Z,15.25
2018-04-15T14:07:34.636Z,13.38
2018-04-15T14:10:03.892Z,14.45
2018-04-15T14:12:33.222Z,13.13
2018-04-15T14:15:03.707Z,16.17
2018-04-15T14:17:33.635Z,11.80
2018-04-15T14:20:02.182Z,13.95
2018-04-15T14:22:31.197Z,12.75
2018-04-15T14:25:01.071Z,19.23
2018-04-15T14:27:32.245Z,15.88
2018-04-15T14:30:02.140Z,17.25
2018-04-15T14:32:30.830Z,13.43
2018-04-15T14:34:59.223Z,17.48
2018-04-15T14:37:27.652Z,11.80
2018-04-15T14:39:56.955Z,19.60
2018-04-15T14:42:26.139Z,15.93
2018-04-15T14:44:54.691Z,11.40
2018-04-15T14:47:23.200Z,12.77
2018-04-15T14:49:51.583Z,14.50
2018-04-15T14:52:22.861Z,15.48
2018-04-15T14:54:52.077Z,15.88
2018-04-15T14:57:22.386Z,15.25
2018-04-15T14:59:52.350Z,12.15
2018-04-15T15:02:23.046Z,15.23
2018-04-15T15:04:51.516Z,14.77
2018-04-15T15:07:22.925Z,15.95
2018-04-15T15:09:52.311Z,14.13
2018-04-15T15:12:20.707Z,12.50
2018-04-15T15:14:49.146Z,14.40
2018-04-15T15:17:21.568Z,14.40
2018-04-15T15:22:59.925Z,12.18
2018-04-15T15:25:29.101Z,13.70
2018-04-15T15:27:57.544Z,13.10
2018-04-15T15:30:25.961Z,15.60
2018-04-15T15:32:54.435Z,14.20
2018-04-15T15:35:22.858Z,14.50
2018-04-15T15:38:11.012Z,15.25
2018-04-15T15:40:43.526Z,19.40
2018-04-15T15:46:12.580Z,17.27
2018-04-15T15:48:43.185Z,16.08
2018-04-15T15:51:14.113Z,16.27
2018-04-15T15:53:43.267Z,15.85
2018-04-15T15:56:11.790Z,16.48
2018-04-15T15:58:40.593Z,17.98
2018-04-15T16:01:09.026Z,17.70
2018-04-15T16:03:37.365Z,16.30
2018-04-15T16:06:05.811Z,12.90
2018-04-15T16:08:34.285Z,17.58
2018-04-15T16:11:02.728Z,14.43
2018-04-15T16:13:31.983Z,17.23
2018-04-15T16:16:00.596Z,17.58
2018-04-15T16:18:29.527Z,17.85
2018-04-15T16:20:58.245Z,17.87
2018-04-15T16:23:26.609Z,17.90
2018-04-15T16:25:56.067Z,21.08
2018-04-15T16:28:24.916Z,21.48
2018-04-15T16:30:53.296Z,22.30
2018-04-15T16:33:21.678Z,18.83
2018-04-15T16:35:50.292Z,18.43
2018-04-15T16:38:19.988Z,20.30
2018-04-15T16:40:48.931Z,19.80
2018-04-15T16:43:17.984Z,19.57
2018-04-15T16:45:46.366Z,19.10
2018-04-15T16:48:15.655Z,20.60
2018-04-15T16:50:44.340Z,21.67
2018-04-15T16:53:13.753Z,22.37
2018-04-15T16:55:42.100Z,19.07
2018-04-15T16:58:10.480Z,22.87
2018-04-15T17:00:38.923Z,18.77
2018-04-15T17:03:08.090Z,19.67
2018-04-15T17:05:36.636Z,21.73
2018-04-15T17:08:05.029Z,18.43
2018-04-15T17:10:33.405Z,19.60
2018-04-15T17:13:02.302Z,18.30
2018-04-15T17:15:31.396Z,18.90
2018-04-15T17:18:00.225Z,20.67
2018-04-15T17:20:29.537Z,22.27
2018-04-15T17:22:57.908Z,23.00
2018-04-15T17:25:26.656Z,20.13
2018-04-15T17:27:55.351Z,23.30
2018-04-15T17:30:23.719Z,21.73
2018-04-15T17:32:52.272Z,22.50
2018-04-15T17:35:20.810Z,20.03
2018-04-15T17:37:49.271Z,22.80
2018-04-15T17:40:18.228Z,21.90
2018-04-15T17:42:48.249Z,21.33
2018-04-15T17:45:17.350Z,21.53
2018-04-15T17:47:45.838Z,22.53
2018-04-15T17:50:14.240Z,21.33
2018-04-15T17:52:42.600Z,22.77
2018-04-15T17:55:11.093Z,22.97
2018-04-15T17:57:39.430Z,21.27
2018-04-15T18:00:08.560Z,23.60
2018-04-15T18:02:37.210Z,25.37
2018-04-15T18:05:05.652Z,25.27
2018-04-15T18:07:34.593Z,22.33
2018-04-15T18:10:03.016Z,22.93
2018-04-15T18:12:32.344Z,23.80
2018-04-15T18:15:00.743Z,22.40
2018-04-15T18:17:30.575Z,24.63
2018-04-15T18:19:59.186Z,24.10
2018-04-15T18:22:27.852Z,22.03
2018-04-15T18:24:56.970Z,24.60
2018-04-15T18:27:25.780Z,29.23
2018-04-15T18:29:55.298Z,28.10
2018-04-15T18:32:23.701Z,25.50
2018-04-15T18:34:52.855Z,25.33
2018-04-15T18:37:22.570Z,23.53
2018-04-15T18:39:51.022Z,22.17
2018-04-15T18:42:19.403Z,25.97
2018-04-15T18:44:47.948Z,25.17
2018-04-15T18:47:17.240Z,27.50
2018-04-15T18:49:45.804Z,27.50
2018-04-15T18:52:14.422Z,23.97
2018-04-15T18:54:42.939Z,24.47
2018-04-15T18:57:12.682Z,25.90
2018-04-15T18:59:41.451Z,26.80
2018-04-15T19:02:10.154Z,26.33
2018-04-15T19:04:38.559Z,26.73
2018-04-15T19:07:23.711Z,29.20
2018-04-15T19:09:54.581Z,29.13
2018-04-15T19:12:23.019Z,31.10
2018-04-15T19:14:51.367Z,29.97
2018-04-15T19:17:19.856Z,30.13
2018-04-15T19:19:48.359Z,30.80
2018-04-15T19:22:16.717Z,28.80
2018-04-15T19:24:45.131Z,30.83
2018-04-15T19:27:13.706Z,30.47
2018-04-15T19:29:42.255Z,32.33
2018-04-15T19:32:18.020Z,30.47
2018-04-15T19:34:46.732Z,30.57
2018-04-15T19:37:15.305Z,29.57
2018-04-15T19:39:44.148Z,29.63
2018-04-15T19:42:13.398Z,28.67
2018-04-15T19:44:41.937Z,28.30
2018-04-15T19:47:11.219Z,28.23
2018-04-15T19:49:40.728Z,32.23
2018-04-15T19:52:09.132Z,34.13
2018-04-15T19:54:37.532Z,29.60
2018-04-15T19:57:06.042Z,32.60
2018-04-15T19:59:34.538Z,31.17
2018-04-15T20:02:03.857Z,30.13
2018-04-15T20:04:32.592Z,31.23
2018-04-15T20:07:01.169Z,32.53
2018-04-15T20:09:29.847Z,30.47
2018-04-15T20:11:58.561Z,33.00
2018-04-15T20:14:27.420Z,30.53
2018-04-15T20:16:56.093Z,28.83
2018-04-15T20:19:24.596Z,31.20
2018-04-15T20:21:52.944Z,35.67
2018-04-15T20:24:22.121Z,35.20
2018-04-15T20:26:50.659Z,36.37
2018-04-15T20:29:19.020Z,36.10
2018-04-15T20:31:47.400Z,35.10
2018-04-15T20:34:15.779Z,37.73
2018-04-15T20:36:45.052Z,32.93
2018-04-15T20:39:13.520Z,37.10
2018-04-15T20:41:42.302Z,33.50
2018-04-15T20:44:10.772Z,34.73
2018-04-15T20:46:39.200Z,37.40
2018-04-15T20:49:07.870Z,34.60
2018-04-15T20:51:36.255Z,35.47
2018-04-15T20:54:05.424Z,38.37
2018-04-15T20:56:33.805Z,36.23
2018-04-15T20:59:02.255Z,36.40
2018-04-15T21:01:30.627Z,36.23
2018-04-15T21:03:58.999Z,34.30
2018-04-15T21:06:27.440Z,34.27
2018-04-15T21:08:55.817Z,36.83
2018-04-15T21:11:24.409Z,34.87
2018-04-15T21:13:52.783Z,34.77
2018-04-15T21:16:21.704Z,37.43
2018-04-15T21:18:50.256Z,39.97
2018-04-15T21:21:18.681Z,42.47
2018-04-15T21:23:47.205Z,37.13
2018-04-15T21:26:15.590Z,37.17
2018-04-15T21:28:44.103Z,38.47
2018-04-15T21:31:12.572Z,38.50
2018-04-15T21:33:40.987Z,39.50
2018-04-15T21:36:09.346Z,38.23
2018-04-15T21:38:38.521Z,40.57
2018-04-15T21:41:07.636Z,39.03
2018-04-15T21:43:36.794Z,41.73
2018-04-15T21:46:05.203Z,38.00
2018-04-15T21:48:34.343Z,37.47
2018-04-15T21:51:02.827Z,41.60
2018-04-15T21:53:31.178Z,38.77
2018-04-15T21:55:59.902Z,41.90
2018-04-15T21:58:28.255Z,42.37
2018-04-15T22:00:56.809Z,39.93
2018-04-15T22:03:25.155Z,50.20
2018-04-15T22:05:53.534Z,43.67
2018-04-15T22:08:22.068Z,41.40
2018-04-15T22:10:51.660Z,46.27
2018-04-15T22:13:20.052Z,45.70
2018-04-15T22:15:49.435Z,44.83
2018-04-15T22:18:17.824Z,42.43
2018-04-15T22:20:46.206Z,50.23
2018-04-15T22:23:15.460Z,44.23
2018-04-15T22:25:43.813Z,49.93
2018-04-15T22:28:12.335Z,46.10
2018-04-15T22:30:40.797Z,48.37
2018-04-15T22:33:09.613Z,46.73
2018-04-15T22:35:37.969Z,47.87
2018-04-15T22:38:06.749Z,47.37
2018-04-15T22:40:35.162Z,46.20
2018-04-15T22:43:04.366Z,48.07
2018-04-15T22:45:32.858Z,45.93
2018-04-15T22:48:05.794Z,41.17
2018-04-15T22:50:37.091Z,43.33
2018-04-15T22:53:05.478Z,49.97
2018-04-15T22:55:34.687Z,47.83
2018-04-15T22:58:05.775Z,46.93
2018-04-15T23:00:34.207Z,47.60
2018-04-15T23:03:03.388Z,47.23
2018-04-15T23:05:31.782Z,51.43
2018-04-15T23:08:01.486Z,49.27
2018-04-15T23:10:30.623Z,49.33
2018-04-15T23:12:58.995Z,44.93
2018-04-15T23:15:27.365Z,49.33
2018-04-15T23:17:55.759Z,48.43
2018-04-15T23:20:24.142Z,52.43
2018-04-15T23:22:52.497Z,52.90
2018-04-15T23:25:20.962Z,52.30
2018-04-15T23:27:49.311Z,50.23
2018-04-15T23:30:18.482Z,52.40
2018-04-15T23:32:47.692Z,47.40
2018-04-15T23:35:16.023Z,47.47
2018-04-15T23:37:45.231Z,46.63
2018-04-15T23:40:14.370Z,45.33
2018-04-15T23:42:42.728Z,48.83
2018-04-15T23:45:11.102Z,47.63
2018-04-15T23:47:39.469Z,51.40
2018-04-15T23:50:07.826Z,50.50
2018-04-15T23:52:36.958Z,51.37
2018-04-15T23:55:06.179Z,47.63
2018-04-15T23:57:34.868Z,51.20
